Coleman A. Young Municipal Airport Detroit US
ICAO: KDET
IATA: DET
Category: Medium
Scheduled Services: No

Elevation: 626 ft
TransAlt. 18000 ft.

Airport Communications:
APP/DEP:126.85
ATIS:124.875
GND:121.85
LANSING RDO:122.2
TWR:121.3
UNICOM:122.95

KDET Zoom In..

If you have problems with the map follow the link
https://www.worldairports.se/pages/airport.php?
ICAO=KDET

Runways:

(A) RW 07 length 3714 ft width 100 ft
---- / hdg 68

(B) RW 15 length 5090 ft width 100 ft
ILS 111.30 / hdg 148

(C) RW 25 length 3714 ft width 100 ft
---- / hdg 248

(D) RW 33 length 5090 ft width 100 ft
ILS 111.30 / hdg 328

Location; KDET
Day. 18 / Time. 01.53 Zulu
* Altimeter: 29.84
* Temperature: -04° c. -24.8°f.
* Wind from: 030° Speed 08 kn.
Dewpoint: -07° c.
Visibility: 6 Statute Miles.
Clouds: Overcast 1000 ft.
Conditions: Light Snow.Conditions: Mist.

KDET 180153Z 03008KT 6SM -SN BR OVC010 M04/M07 A2984 RMK AO2 SLP113 P0000 T10441067


Wind From 030°
Speed 08 kn.

 
 
jpsmedia.com for Web Design worldairports.se 2019   terms of use